KBJC/BJC METAR and TAF weather

Enter ICAO airport designator
Station Type Date Time Source
KBJC METAR 2020/01/18 21:47 UTC NOAA

KBJC 182147Z 03003KT 10SM FEW100 BKN150 05/M16 A3022


Station Type Date Time Source
KBJC Decoded METAR 2020/01/18 21:47 UTC NOAA

Broomfield / Jeffco, CO, United States (KBJC) 39-55N 105-07W
Jan 18, 2020 - 04:47 PM EST / 2020.01.18 2147 UTC
Wind: from the NNE (030 degrees) at 3 MPH (3 KT):0
Visibility: 10 mile(s):0
Sky conditions: mostly cloudy
Temperature: 41 F (5 C)
Dew Point: 3 F (-16 C)
Relative Humidity: 20%
Pressure (altimeter): 30.22 in. Hg (1023 hPa)
ob: KBJC 182147Z 03003KT 10SM FEW100 BKN150 05/M16 A3022
cycle: 22

Station Type Date Time Source
KBJC TAF 2020/01/18 18:30 UTC NOAA

TAF KBJC 181727Z 1818/1918 15008KT P6SM SCT120 BKN180
FM182000 03008KT P6SM SCT120 BKN180
FM190000 33007KT P6SM SCT200
FM190500 25005KT P6SM SCT200

Example: see airport list